sensor_id;sensor_type;location;lat;lon;timestamp;P1;durP1;ratioP1;P2;durP2;ratioP2
82805;SDS011;72558;51.000;-3.112;2023-09-07T00:00:46;17.7;;;7.5;;
82805;SDS011;72558;51.000;-3.112;2023-09-07T00:03:19;17.0;;;8.0;;
82805;SDS011;72558;51.000;-3.112;2023-09-07T00:05:52;19.9;;;8.3;;
82805;SDS011;72558;51.000;-3.112;2023-09-07T00:08:25;18.4;;;8.2;;
82805;SDS011;72558;51.000;-3.112;2023-09-07T00:10:57;18.6;;;8.7;;
82805;SDS011;72558;51.000;-3.112;2023-09-07T00:13:34;17.2;;;8.2;;
82805;SDS011;72558;51.000;-3.112;2023-09-07T00:16:07;17.9;;;8.9;;
82805;SDS011;72558;51.000;-3.112;2023-09-07T00:18:40;21.9;;;8.5;;
82805;SDS011;72558;51.000;-3.112;2023-09-07T00:21:13;20.2;;;9.1;;
82805;SDS011;72558;51.000;-3.112;2023-09-07T00:23:46;19.4;;;9.1;;
82805;SDS011;72558;51.000;-3.112;2023-09-07T00:26:18;17.2;;;8.5;;
82805;SDS011;72558;51.000;-3.112;2023-09-07T00:28:51;21.7;;;8.8;;
82805;SDS011;72558;51.000;-3.112;2023-09-07T00:31:24;20.5;;;9.4;;
82805;SDS011;72558;51.000;-3.112;2023-09-07T00:33:57;20.8;;;8.9;;
82805;SDS011;72558;51.000;-3.112;2023-09-07T00:36:30;21.5;;;10.1;;
82805;SDS011;72558;51.000;-3.112;2023-09-07T00:39:02;23.1;;;9.7;;
82805;SDS011;72558;51.000;-3.112;2023-09-07T00:41:35;21.6;;;9.1;;
82805;SDS011;72558;51.000;-3.112;2023-09-07T00:44:08;21.3;;;9.5;;
82805;SDS011;72558;51.000;-3.112;2023-09-07T00:46:41;19.3;;;10.0;;
82805;SDS011;72558;51.000;-3.112;2023-09-07T00:49:14;23.1;;;10.0;;
82805;SDS011;72558;51.000;-3.112;2023-09-07T00:51:47;20.6;;;9.1;;
82805;SDS011;72558;51.000;-3.112;2023-09-07T00:54:19;20.1;;;9.3;;
82805;SDS011;72558;51.000;-3.112;2023-09-07T00:56:52;21.5;;;10.2;;
82805;SDS011;72558;51.000;-3.112;2023-09-07T00:59:26;19.2;;;9.1;;
82805;SDS011;72558;51.000;-3.112;2023-09-07T01:01:59;20.7;;;9.7;;
82805;SDS011;72558;51.000;-3.112;2023-09-07T01:04:32;19.5;;;9.2;;
82805;SDS011;72558;51.000;-3.112;2023-09-07T01:07:05;19.9;;;9.7;;
82805;SDS011;72558;51.000;-3.112;2023-09-07T01:09:42;22.0;;;9.6;;
82805;SDS011;72558;51.000;-3.112;2023-09-07T01:12:15;21.4;;;10.3;;
82805;SDS011;72558;51.000;-3.112;2023-09-07T01:14:48;18.5;;;9.3;;
82805;SDS011;72558;51.000;-3.112;2023-09-07T01:17:21;23.3;;;10.2;;
82805;SDS011;72558;51.000;-3.112;2023-09-07T01:19:54;21.9;;;10.6;;
82805;SDS011;72558;51.000;-3.112;2023-09-07T01:22:29;24.5;;;10.6;;
82805;SDS011;72558;51.000;-3.112;2023-09-07T01:25:02;33.1;;;14.1;;
82805;SDS011;72558;51.000;-3.112;2023-09-07T01:27:36;31.6;;;13.4;;
82805;SDS011;72558;51.000;-3.112;2023-09-07T01:30:09;26.3;;;13.0;;
82805;SDS011;72558;51.000;-3.112;2023-09-07T01:32:42;24.8;;;13.4;;
82805;SDS011;72558;51.000;-3.112;2023-09-07T01:35:15;25.6;;;14.2;;
82805;SDS011;72558;51.000;-3.112;2023-09-07T01:37:48;27.3;;;13.5;;
82805;SDS011;72558;51.000;-3.112;2023-09-07T01:40:21;24.3;;;12.5;;
82805;SDS011;72558;51.000;-3.112;2023-09-07T01:42:54;27.3;;;12.8;;
82805;SDS011;72558;51.000;-3.112;2023-09-07T01:45:27;21.1;;;11.9;;
82805;SDS011;72558;51.000;-3.112;2023-09-07T01:48:00;24.8;;;12.2;;
82805;SDS011;72558;51.000;-3.112;2023-09-07T01:50:32;24.3;;;12.2;;
82805;SDS011;72558;51.000;-3.112;2023-09-07T01:53:05;23.1;;;11.9;;
82805;SDS011;72558;51.000;-3.112;2023-09-07T01:55:38;25.8;;;11.8;;
82805;SDS011;72558;51.000;-3.112;2023-09-07T01:58:11;21.9;;;12.2;;
82805;SDS011;72558;51.000;-3.112;2023-09-07T02:00:44;25.4;;;11.8;;
82805;SDS011;72558;51.000;-3.112;2023-09-07T02:03:16;23.8;;;12.4;;
82805;SDS011;72558;51.000;-3.112;2023-09-07T02:05:49;22.2;;;10.8;;
82805;SDS011;72558;51.000;-3.112;2023-09-07T02:08:22;20.1;;;10.1;;
82805;SDS011;72558;51.000;-3.112;2023-09-07T02:10:55;21.6;;;10.4;;
82805;SDS011;72558;51.000;-3.112;2023-09-07T02:13:27;20.0;;;9.7;;
82805;SDS011;72558;51.000;-3.112;2023-09-07T02:16:00;20.7;;;10.2;;
82805;SDS011;72558;51.000;-3.112;2023-09-07T02:18:35;19.1;;;9.6;;
82805;SDS011;72558;51.000;-3.112;2023-09-07T02:21:08;18.6;;;9.6;;
82805;SDS011;72558;51.000;-3.112;2023-09-07T02:23:41;17.2;;;8.7;;
82805;SDS011;72558;51.000;-3.112;2023-09-07T02:26:14;17.8;;;9.8;;
82805;SDS011;72558;51.000;-3.112;2023-09-07T02:28:47;23.9;;;10.4;;
82805;SDS011;72558;51.000;-3.112;2023-09-07T02:31:19;19.5;;;10.3;;
82805;SDS011;72558;51.000;-3.112;2023-09-07T02:33:52;17.4;;;9.1;;
82805;SDS011;72558;51.000;-3.112;2023-09-07T02:36:25;19.0;;;9.3;;
82805;SDS011;72558;51.000;-3.112;2023-09-07T02:38:58;21.2;;;9.8;;
82805;SDS011;72558;51.000;-3.112;2023-09-07T02:41:31;20.4;;;10.0;;
82805;SDS011;72558;51.000;-3.112;2023-09-07T02:44:03;18.4;;;9.4;;
82805;SDS011;72558;51.000;-3.112;2023-09-07T02:46:36;19.7;;;9.6;;
82805;SDS011;72558;51.000;-3.112;2023-09-07T02:49:09;21.8;;;10.3;;
82805;SDS011;72558;51.000;-3.112;2023-09-07T02:51:42;18.5;;;9.6;;
82805;SDS011;72558;51.000;-3.112;2023-09-07T02:54:15;17.6;;;9.9;;
82805;SDS011;72558;51.000;-3.112;2023-09-07T02:56:47;20.9;;;10.9;;
82805;SDS011;72558;51.000;-3.112;2023-09-07T02:59:20;18.5;;;9.6;;
82805;SDS011;72558;51.000;-3.112;2023-09-07T03:01:53;18.0;;;10.2;;
82805;SDS011;72558;51.000;-3.112;2023-09-07T03:04:26;17.7;;;10.6;;
82805;SDS011;72558;51.000;-3.112;2023-09-07T03:06:58;18.7;;;10.1;;
82805;SDS011;72558;51.000;-3.112;2023-09-07T03:09:32;22.1;;;10.5;;
82805;SDS011;72558;51.000;-3.112;2023-09-07T03:12:05;18.0;;;10.1;;
82805;SDS011;72558;51.000;-3.112;2023-09-07T03:14:38;19.7;;;9.9;;
82805;SDS011;72558;51.000;-3.112;2023-09-07T03:17:14;18.1;;;10.5;;
82805;SDS011;72558;51.000;-3.112;2023-09-07T03:19:47;18.9;;;10.6;;
82805;SDS011;72558;51.000;-3.112;2023-09-07T03:22:20;17.8;;;9.4;;
82805;SDS011;72558;51.000;-3.112;2023-09-07T03:24:53;22.1;;;9.7;;
82805;SDS011;72558;51.000;-3.112;2023-09-07T03:27:26;22.6;;;10.0;;
82805;SDS011;72558;51.000;-3.112;2023-09-07T03:29:58;19.4;;;9.7;;
82805;SDS011;72558;51.000;-3.112;2023-09-07T03:32:31;17.9;;;9.4;;
82805;SDS011;72558;51.000;-3.112;2023-09-07T03:35:04;20.6;;;9.7;;
82805;SDS011;72558;51.000;-3.112;2023-09-07T03:37:37;20.9;;;9.3;;
82805;SDS011;72558;51.000;-3.112;2023-09-07T03:40:10;20.6;;;8.9;;
82805;SDS011;72558;51.000;-3.112;2023-09-07T03:42:42;22.4;;;10.0;;
82805;SDS011;72558;51.000;-3.112;2023-09-07T03:45:15;20.9;;;8.3;;
82805;SDS011;72558;51.000;-3.112;2023-09-07T03:47:48;22.4;;;9.9;;
82805;SDS011;72558;51.000;-3.112;2023-09-07T03:50:21;20.1;;;8.8;;
82805;SDS011;72558;51.000;-3.112;2023-09-07T03:52:54;18.7;;;9.1;;
82805;SDS011;72558;51.000;-3.112;2023-09-07T03:55:27;19.8;;;8.9;;
82805;SDS011;72558;51.000;-3.112;2023-09-07T03:57:59;20.4;;;8.0;;
82805;SDS011;72558;51.000;-3.112;2023-09-07T04:00:32;19.4;;;9.1;;
82805;SDS011;72558;51.000;-3.112;2023-09-07T04:03:05;20.1;;;9.1;;
82805;SDS011;72558;51.000;-3.112;2023-09-07T04:05:38;21.7;;;9.9;;
82805;SDS011;72558;51.000;-3.112;2023-09-07T04:08:10;22.0;;;9.4;;
82805;SDS011;72558;51.000;-3.112;2023-09-07T04:10:45;20.1;;;9.5;;
82805;SDS011;72558;51.000;-3.112;2023-09-07T04:13:18;20.4;;;9.8;;
82805;SDS011;72558;51.000;-3.112;2023-09-07T04:15:51;23.0;;;9.4;;
82805;SDS011;72558;51.000;-3.112;2023-09-07T04:18:24;20.0;;;8.4;;
82805;SDS011;72558;51.000;-3.112;2023-09-07T04:20:57;18.3;;;9.3;;
82805;SDS011;72558;51.000;-3.112;2023-09-07T04:23:36;18.8;;;9.3;;
82805;SDS011;72558;51.000;-3.112;2023-09-07T04:26:09;18.9;;;9.7;;
82805;SDS011;72558;51.000;-3.112;2023-09-07T04:28:43;24.5;;;10.8;;
82805;SDS011;72558;51.000;-3.112;2023-09-07T04:31:15;22.4;;;9.4;;
82805;SDS011;72558;51.000;-3.112;2023-09-07T04:33:48;20.8;;;9.8;;
82805;SDS011;72558;51.000;-3.112;2023-09-07T04:36:21;20.0;;;8.5;;
82805;SDS011;72558;51.000;-3.112;2023-09-07T04:38:54;22.2;;;9.6;;
82805;SDS011;72558;51.000;-3.112;2023-09-07T04:41:26;23.9;;;11.4;;
82805;SDS011;72558;51.000;-3.112;2023-09-07T04:43:59;23.9;;;10.1;;
82805;SDS011;72558;51.000;-3.112;2023-09-07T04:46:32;21.0;;;9.6;;
82805;SDS011;72558;51.000;-3.112;2023-09-07T04:49:05;21.8;;;11.4;;
82805;SDS011;72558;51.000;-3.112;2023-09-07T04:51:38;21.5;;;11.4;;
82805;SDS011;72558;51.000;-3.112;2023-09-07T04:54:11;22.9;;;11.0;;
82805;SDS011;72558;51.000;-3.112;2023-09-07T04:56:44;21.6;;;10.6;;
82805;SDS011;72558;51.000;-3.112;2023-09-07T04:59:16;21.3;;;10.0;;
82805;SDS011;72558;51.000;-3.112;2023-09-07T05:01:49;24.8;;;10.7;;
82805;SDS011;72558;51.000;-3.112;2023-09-07T05:04:22;19.6;;;9.8;;
82805;SDS011;72558;51.000;-3.112;2023-09-07T05:06:55;18.2;;;9.8;;
82805;SDS011;72558;51.000;-3.112;2023-09-07T05:09:28;21.9;;;10.4;;
82805;SDS011;72558;51.000;-3.112;2023-09-07T05:12:01;20.4;;;10.0;;
82805;SDS011;72558;51.000;-3.112;2023-09-07T05:14:33;19.3;;;9.2;;
82805;SDS011;72558;51.000;-3.112;2023-09-07T05:17:06;20.6;;;9.7;;
82805;SDS011;72558;51.000;-3.112;2023-09-07T05:19:39;20.6;;;10.3;;
82805;SDS011;72558;51.000;-3.112;2023-09-07T05:22:12;26.1;;;9.7;;
82805;SDS011;72558;51.000;-3.112;2023-09-07T05:24:44;20.9;;;10.2;;
82805;SDS011;72558;51.000;-3.112;2023-09-07T05:27:17;22.0;;;10.5;;
82805;SDS011;72558;51.000;-3.112;2023-09-07T05:29:50;19.7;;;10.5;;
82805;SDS011;72558;51.000;-3.112;2023-09-07T05:32:23;22.5;;;10.3;;
82805;SDS011;72558;51.000;-3.112;2023-09-07T05:34:55;18.7;;;10.7;;
82805;SDS011;72558;51.000;-3.112;2023-09-07T05:37:28;21.9;;;10.5;;
82805;SDS011;72558;51.000;-3.112;2023-09-07T05:40:01;21.0;;;10.5;;
82805;SDS011;72558;51.000;-3.112;2023-09-07T05:42:34;21.1;;;11.4;;
82805;SDS011;72558;51.000;-3.112;2023-09-07T05:45:07;19.6;;;9.7;;
82805;SDS011;72558;51.000;-3.112;2023-09-07T05:47:40;23.3;;;11.1;;
82805;SDS011;72558;51.000;-3.112;2023-09-07T05:50:13;19.1;;;9.9;;
82805;SDS011;72558;51.000;-3.112;2023-09-07T05:52:46;18.4;;;9.8;;
82805;SDS011;72558;51.000;-3.112;2023-09-07T05:55:19;20.4;;;10.9;;
82805;SDS011;72558;51.000;-3.112;2023-09-07T05:57:51;22.6;;;10.7;;
82805;SDS011;72558;51.000;-3.112;2023-09-07T06:00:26;24.3;;;11.8;;
82805;SDS011;72558;51.000;-3.112;2023-09-07T06:02:58;22.2;;;10.8;;
82805;SDS011;72558;51.000;-3.112;2023-09-07T06:05:31;22.3;;;10.7;;
82805;SDS011;72558;51.000;-3.112;2023-09-07T06:08:05;22.3;;;10.5;;
82805;SDS011;72558;51.000;-3.112;2023-09-07T06:10:38;24.1;;;10.5;;
82805;SDS011;72558;51.000;-3.112;2023-09-07T06:13:11;24.3;;;11.3;;
82805;SDS011;72558;51.000;-3.112;2023-09-07T06:15:44;20.5;;;11.0;;
82805;SDS011;72558;51.000;-3.112;2023-09-07T06:18:17;16.6;;;10.4;;
82805;SDS011;72558;51.000;-3.112;2023-09-07T06:20:51;20.2;;;11.3;;
82805;SDS011;72558;51.000;-3.112;2023-09-07T06:23:23;19.8;;;10.1;;
82805;SDS011;72558;51.000;-3.112;2023-09-07T06:25:56;23.6;;;11.4;;
82805;SDS011;72558;51.000;-3.112;2023-09-07T06:28:29;24.0;;;11.4;;
82805;SDS011;72558;51.000;-3.112;2023-09-07T06:31:02;19.2;;;10.7;;
82805;SDS011;72558;51.000;-3.112;2023-09-07T06:33:35;21.6;;;11.2;;
82805;SDS011;72558;51.000;-3.112;2023-09-07T06:36:07;19.6;;;10.5;;
82805;SDS011;72558;51.000;-3.112;2023-09-07T06:38:40;22.4;;;11.2;;
82805;SDS011;72558;51.000;-3.112;2023-09-07T06:41:13;20.6;;;10.1;;
82805;SDS011;72558;51.000;-3.112;2023-09-07T06:43:46;19.6;;;10.2;;
82805;SDS011;72558;51.000;-3.112;2023-09-07T06:46:19;18.9;;;10.6;;
82805;SDS011;72558;51.000;-3.112;2023-09-07T06:48:51;19.6;;;10.7;;
82805;SDS011;72558;51.000;-3.112;2023-09-07T06:51:24;20.9;;;9.8;;
82805;SDS011;72558;51.000;-3.112;2023-09-07T06:53:57;21.4;;;11.3;;
82805;SDS011;72558;51.000;-3.112;2023-09-07T06:56:30;21.0;;;10.2;;
82805;SDS011;72558;51.000;-3.112;2023-09-07T06:59:03;23.2;;;10.2;;
82805;SDS011;72558;51.000;-3.112;2023-09-07T07:01:36;20.2;;;10.7;;
82805;SDS011;72558;51.000;-3.112;2023-09-07T07:04:08;22.1;;;10.6;;
82805;SDS011;72558;51.000;-3.112;2023-09-07T07:06:41;24.7;;;11.7;;
82805;SDS011;72558;51.000;-3.112;2023-09-07T07:09:14;23.8;;;11.8;;
82805;SDS011;72558;51.000;-3.112;2023-09-07T07:11:47;21.1;;;12.0;;
82805;SDS011;72558;51.000;-3.112;2023-09-07T07:14:19;22.6;;;11.4;;
82805;SDS011;72558;51.000;-3.112;2023-09-07T07:16:52;27.7;;;12.3;;
82805;SDS011;72558;51.000;-3.112;2023-09-07T07:19:25;21.3;;;11.5;;
82805;SDS011;72558;51.000;-3.112;2023-09-07T07:21:58;21.8;;;11.2;;
82805;SDS011;72558;51.000;-3.112;2023-09-07T07:24:31;19.8;;;11.0;;
82805;SDS011;72558;51.000;-3.112;2023-09-07T07:27:03;24.5;;;11.4;;
82805;SDS011;72558;51.000;-3.112;2023-09-07T07:29:36;22.9;;;10.9;;
82805;SDS011;72558;51.000;-3.112;2023-09-07T07:32:09;26.0;;;10.2;;
82805;SDS011;72558;51.000;-3.112;2023-09-07T07:34:42;23.0;;;10.4;;
82805;SDS011;72558;51.000;-3.112;2023-09-07T07:37:14;20.7;;;10.0;;
82805;SDS011;72558;51.000;-3.112;2023-09-07T07:39:47;24.2;;;10.4;;
82805;SDS011;72558;51.000;-3.112;2023-09-07T07:42:20;26.0;;;10.5;;
82805;SDS011;72558;51.000;-3.112;2023-09-07T07:44:53;25.3;;;10.1;;
82805;SDS011;72558;51.000;-3.112;2023-09-07T07:47:26;22.3;;;10.2;;
82805;SDS011;72558;51.000;-3.112;2023-09-07T07:49:58;22.3;;;10.4;;
82805;SDS011;72558;51.000;-3.112;2023-09-07T07:52:31;23.1;;;9.6;;
82805;SDS011;72558;51.000;-3.112;2023-09-07T07:55:04;23.3;;;10.2;;
82805;SDS011;72558;51.000;-3.112;2023-09-07T07:57:37;22.4;;;9.2;;
82805;SDS011;72558;51.000;-3.112;2023-09-07T08:00:10;26.3;;;9.3;;
82805;SDS011;72558;51.000;-3.112;2023-09-07T08:02:43;20.5;;;9.4;;
82805;SDS011;72558;51.000;-3.112;2023-09-07T08:05:16;20.6;;;8.8;;
82805;SDS011;72558;51.000;-3.112;2023-09-07T08:07:48;18.9;;;8.2;;
82805;SDS011;72558;51.000;-3.112;2023-09-07T08:10:21;21.4;;;8.5;;
82805;SDS011;72558;51.000;-3.112;2023-09-07T08:12:54;18.8;;;7.6;;
82805;SDS011;72558;51.000;-3.112;2023-09-07T08:15:27;20.8;;;7.2;;
82805;SDS011;72558;51.000;-3.112;2023-09-07T08:18:00;22.3;;;8.0;;
82805;SDS011;72558;51.000;-3.112;2023-09-07T08:20:32;18.9;;;7.8;;
82805;SDS011;72558;51.000;-3.112;2023-09-07T08:23:05;18.7;;;8.5;;
82805;SDS011;72558;51.000;-3.112;2023-09-07T08:25:38;21.3;;;8.1;;
82805;SDS011;72558;51.000;-3.112;2023-09-07T08:28:11;18.0;;;7.7;;
82805;SDS011;72558;51.000;-3.112;2023-09-07T08:30:44;23.5;;;8.1;;
82805;SDS011;72558;51.000;-3.112;2023-09-07T08:33:17;19.2;;;8.0;;
82805;SDS011;72558;51.000;-3.112;2023-09-07T08:35:50;22.3;;;8.7;;
82805;SDS011;72558;51.000;-3.112;2023-09-07T08:38:24;18.5;;;8.8;;
82805;SDS011;72558;51.000;-3.112;2023-09-07T08:40:57;21.9;;;8.8;;
82805;SDS011;72558;51.000;-3.112;2023-09-07T08:43:32;24.1;;;9.2;;
82805;SDS011;72558;51.000;-3.112;2023-09-07T08:46:08;20.8;;;8.3;;
82805;SDS011;72558;51.000;-3.112;2023-09-07T08:48:45;19.6;;;7.7;;
82805;SDS011;72558;51.000;-3.112;2023-09-07T08:51:18;21.0;;;7.9;;
82805;SDS011;72558;51.000;-3.112;2023-09-07T08:53:51;21.7;;;7.9;;
82805;SDS011;72558;51.000;-3.112;2023-09-07T08:56:24;20.5;;;7.9;;
82805;SDS011;72558;51.000;-3.112;2023-09-07T08:58:57;23.1;;;7.6;;
82805;SDS011;72558;51.000;-3.112;2023-09-07T09:01:30;23.3;;;8.1;;
82805;SDS011;72558;51.000;-3.112;2023-09-07T09:04:03;23.3;;;8.1;;
82805;SDS011;72558;51.000;-3.112;2023-09-07T09:06:36;21.8;;;8.4;;
82805;SDS011;72558;51.000;-3.112;2023-09-07T09:09:09;23.6;;;8.4;;
82805;SDS011;72558;51.000;-3.112;2023-09-07T09:11:41;19.7;;;8.2;;
82805;SDS011;72558;51.000;-3.112;2023-09-07T09:14:14;18.2;;;8.4;;
82805;SDS011;72558;51.000;-3.112;2023-09-07T09:16:48;18.8;;;9.2;;
82805;SDS011;72558;51.000;-3.112;2023-09-07T09:19:21;23.8;;;9.6;;
82805;SDS011;72558;51.000;-3.112;2023-09-07T09:22:02;26.5;;;10.1;;
82805;SDS011;72558;51.000;-3.112;2023-09-07T09:24:35;20.8;;;10.2;;
82805;SDS011;72558;51.000;-3.112;2023-09-07T09:27:08;21.5;;;11.2;;
82805;SDS011;72558;51.000;-3.112;2023-09-07T09:29:40;23.9;;;10.9;;
82805;SDS011;72558;51.000;-3.112;2023-09-07T09:32:13;23.7;;;10.9;;
82805;SDS011;72558;51.000;-3.112;2023-09-07T09:34:46;23.5;;;11.5;;
82805;SDS011;72558;51.000;-3.112;2023-09-07T09:37:20;19.3;;;10.5;;
82805;SDS011;72558;51.000;-3.112;2023-09-07T09:39:53;25.5;;;11.8;;
82805;SDS011;72558;51.000;-3.112;2023-09-07T09:42:27;23.6;;;11.0;;
82805;SDS011;72558;51.000;-3.112;2023-09-07T09:45:00;21.1;;;10.9;;
82805;SDS011;72558;51.000;-3.112;2023-09-07T09:47:34;24.4;;;11.8;;
82805;SDS011;72558;51.000;-3.112;2023-09-07T09:50:08;24.8;;;10.0;;
82805;SDS011;72558;51.000;-3.112;2023-09-07T09:52:42;22.3;;;10.3;;
82805;SDS011;72558;51.000;-3.112;2023-09-07T09:55:15;23.0;;;10.9;;
82805;SDS011;72558;51.000;-3.112;2023-09-07T09:57:48;20.3;;;10.7;;
82805;SDS011;72558;51.000;-3.112;2023-09-07T10:00:20;23.3;;;10.5;;
82805;SDS011;72558;51.000;-3.112;2023-09-07T10:02:53;25.6;;;9.9;;
82805;SDS011;72558;51.000;-3.112;2023-09-07T10:05:30;26.1;;;10.2;;
82805;SDS011;72558;51.000;-3.112;2023-09-07T10:08:03;24.4;;;9.9;;
82805;SDS011;72558;51.000;-3.112;2023-09-07T10:10:40;22.0;;;10.2;;
82805;SDS011;72558;51.000;-3.112;2023-09-07T10:13:14;22.9;;;11.4;;
82805;SDS011;72558;51.000;-3.112;2023-09-07T10:15:47;18.2;;;10.6;;
82805;SDS011;72558;51.000;-3.112;2023-09-07T10:18:20;23.4;;;11.1;;
82805;SDS011;72558;51.000;-3.112;2023-09-07T10:20:53;25.3;;;10.4;;
82805;SDS011;72558;51.000;-3.112;2023-09-07T10:23:26;23.1;;;11.7;;
82805;SDS011;72558;51.000;-3.112;2023-09-07T10:26:07;23.6;;;11.8;;
82805;SDS011;72558;51.000;-3.112;2023-09-07T10:28:43;23.8;;;11.3;;
82805;SDS011;72558;51.000;-3.112;2023-09-07T10:31:16;19.9;;;10.2;;
82805;SDS011;72558;51.000;-3.112;2023-09-07T10:33:50;22.0;;;9.8;;
82805;SDS011;72558;51.000;-3.112;2023-09-07T10:36:22;26.1;;;12.0;;
82805;SDS011;72558;51.000;-3.112;2023-09-07T10:38:56;21.3;;;10.7;;
82805;SDS011;72558;51.000;-3.112;2023-09-07T10:41:29;18.5;;;10.5;;
82805;SDS011;72558;51.000;-3.112;2023-09-07T10:44:11;20.8;;;10.7;;
82805;SDS011;72558;51.000;-3.112;2023-09-07T10:46:44;26.7;;;11.5;;
82805;SDS011;72558;51.000;-3.112;2023-09-07T10:49:17;22.9;;;10.2;;
82805;SDS011;72558;51.000;-3.112;2023-09-07T10:51:50;20.5;;;10.8;;
82805;SDS011;72558;51.000;-3.112;2023-09-07T10:54:23;20.5;;;10.9;;
82805;SDS011;72558;51.000;-3.112;2023-09-07T10:56:56;21.6;;;10.4;;
82805;SDS011;72558;51.000;-3.112;2023-09-07T10:59:29;17.8;;;10.5;;
82805;SDS011;72558;51.000;-3.112;2023-09-07T11:02:01;20.2;;;11.1;;
82805;SDS011;72558;51.000;-3.112;2023-09-07T11:04:36;22.3;;;11.6;;
82805;SDS011;72558;51.000;-3.112;2023-09-07T11:07:09;22.5;;;10.5;;
82805;SDS011;72558;51.000;-3.112;2023-09-07T11:09:42;17.4;;;9.9;;
82805;SDS011;72558;51.000;-3.112;2023-09-07T11:12:15;21.0;;;11.0;;
82805;SDS011;72558;51.000;-3.112;2023-09-07T11:14:48;18.3;;;11.6;;
82805;SDS011;72558;51.000;-3.112;2023-09-07T11:17:20;19.4;;;12.0;;
82805;SDS011;72558;51.000;-3.112;2023-09-07T11:19:58;19.2;;;10.5;;
82805;SDS011;72558;51.000;-3.112;2023-09-07T11:22:34;21.4;;;12.5;;
82805;SDS011;72558;51.000;-3.112;2023-09-07T11:25:07;20.0;;;12.4;;
82805;SDS011;72558;51.000;-3.112;2023-09-07T11:27:40;20.6;;;10.9;;
82805;SDS011;72558;51.000;-3.112;2023-09-07T11:30:13;23.3;;;11.2;;
82805;SDS011;72558;51.000;-3.112;2023-09-07T11:32:46;21.4;;;11.0;;
82805;SDS011;72558;51.000;-3.112;2023-09-07T11:35:19;17.5;;;10.4;;
82805;SDS011;72558;51.000;-3.112;2023-09-07T11:37:52;18.0;;;10.1;;
82805;SDS011;72558;51.000;-3.112;2023-09-07T11:40:26;22.2;;;10.0;;
82805;SDS011;72558;51.000;-3.112;2023-09-07T11:42:59;18.0;;;9.7;;
82805;SDS011;72558;51.000;-3.112;2023-09-07T11:45:32;19.5;;;9.7;;
82805;SDS011;72558;51.000;-3.112;2023-09-07T11:48:07;16.6;;;10.2;;
82805;SDS011;72558;51.000;-3.112;2023-09-07T11:50:41;18.5;;;10.3;;
82805;SDS011;72558;51.000;-3.112;2023-09-07T11:53:15;19.2;;;9.9;;
82805;SDS011;72558;51.000;-3.112;2023-09-07T11:55:48;16.3;;;9.3;;
82805;SDS011;72558;51.000;-3.112;2023-09-07T11:58:21;15.5;;;9.9;;
82805;SDS011;72558;51.000;-3.112;2023-09-07T12:00:53;17.3;;;10.0;;
82805;SDS011;72558;51.000;-3.112;2023-09-07T12:03:26;20.9;;;10.1;;
82805;SDS011;72558;51.000;-3.112;2023-09-07T12:05:59;14.8;;;9.0;;
82805;SDS011;72558;51.000;-3.112;2023-09-07T12:08:32;16.8;;;10.6;;
82805;SDS011;72558;51.000;-3.112;2023-09-07T12:11:05;19.3;;;10.5;;
82805;SDS011;72558;51.000;-3.112;2023-09-07T12:13:38;16.6;;;10.6;;
82805;SDS011;72558;51.000;-3.112;2023-09-07T12:16:10;18.9;;;10.6;;
82805;SDS011;72558;51.000;-3.112;2023-09-07T12:18:43;20.4;;;10.9;;
82805;SDS011;72558;51.000;-3.112;2023-09-07T12:21:16;16.7;;;9.6;;
82805;SDS011;72558;51.000;-3.112;2023-09-07T12:23:48;18.7;;;11.1;;
82805;SDS011;72558;51.000;-3.112;2023-09-07T12:26:21;18.8;;;10.9;;
82805;SDS011;72558;51.000;-3.112;2023-09-07T12:28:54;20.9;;;11.1;;
82805;SDS011;72558;51.000;-3.112;2023-09-07T12:31:27;19.3;;;10.1;;
82805;SDS011;72558;51.000;-3.112;2023-09-07T12:33:59;17.4;;;10.4;;
82805;SDS011;72558;51.000;-3.112;2023-09-07T12:36:32;19.7;;;10.9;;
82805;SDS011;72558;51.000;-3.112;2023-09-07T12:39:05;18.7;;;11.1;;
82805;SDS011;72558;51.000;-3.112;2023-09-07T12:41:38;17.2;;;10.8;;
82805;SDS011;72558;51.000;-3.112;2023-09-07T12:44:11;14.4;;;10.9;;
82805;SDS011;72558;51.000;-3.112;2023-09-07T12:46:43;19.6;;;10.5;;
82805;SDS011;72558;51.000;-3.112;2023-09-07T12:49:16;17.7;;;9.9;;
82805;SDS011;72558;51.000;-3.112;2023-09-07T12:51:49;18.6;;;10.7;;
82805;SDS011;72558;51.000;-3.112;2023-09-07T12:54:22;20.4;;;10.8;;
82805;SDS011;72558;51.000;-3.112;2023-09-07T12:56:55;18.7;;;10.7;;
82805;SDS011;72558;51.000;-3.112;2023-09-07T12:59:27;18.0;;;10.5;;
82805;SDS011;72558;51.000;-3.112;2023-09-07T13:02:01;18.1;;;10.7;;
82805;SDS011;72558;51.000;-3.112;2023-09-07T13:04:33;19.2;;;9.8;;
82805;SDS011;72558;51.000;-3.112;2023-09-07T13:07:06;15.5;;;9.6;;
82805;SDS011;72558;51.000;-3.112;2023-09-07T13:09:39;17.4;;;11.6;;
82805;SDS011;72558;51.000;-3.112;2023-09-07T13:12:14;18.2;;;11.2;;
82805;SDS011;72558;51.000;-3.112;2023-09-07T13:14:47;17.6;;;11.1;;
82805;SDS011;72558;51.000;-3.112;2023-09-07T13:17:20;18.1;;;10.6;;
82805;SDS011;72558;51.000;-3.112;2023-09-07T13:19:53;17.3;;;11.3;;
82805;SDS011;72558;51.000;-3.112;2023-09-07T13:22:25;18.7;;;10.9;;
82805;SDS011;72558;51.000;-3.112;2023-09-07T13:24:58;16.0;;;10.2;;
82805;SDS011;72558;51.000;-3.112;2023-09-07T13:27:31;24.7;;;9.9;;
82805;SDS011;72558;51.000;-3.112;2023-09-07T13:30:03;18.3;;;9.4;;
82805;SDS011;72558;51.000;-3.112;2023-09-07T13:32:37;15.6;;;9.1;;
82805;SDS011;72558;51.000;-3.112;2023-09-07T13:35:10;16.8;;;9.8;;
82805;SDS011;72558;51.000;-3.112;2023-09-07T13:37:42;14.4;;;9.0;;
82805;SDS011;72558;51.000;-3.112;2023-09-07T13:40:16;14.1;;;8.3;;
82805;SDS011;72558;51.000;-3.112;2023-09-07T13:42:48;19.0;;;9.2;;
82805;SDS011;72558;51.000;-3.112;2023-09-07T13:45:21;12.0;;;7.8;;
82805;SDS011;72558;51.000;-3.112;2023-09-07T13:47:54;14.0;;;7.1;;
82805;SDS011;72558;51.000;-3.112;2023-09-07T13:50:27;11.4;;;6.9;;
82805;SDS011;72558;51.000;-3.112;2023-09-07T13:52:59;13.5;;;7.0;;
82805;SDS011;72558;51.000;-3.112;2023-09-07T13:55:32;13.3;;;6.5;;
82805;SDS011;72558;51.000;-3.112;2023-09-07T13:58:05;11.2;;;6.4;;
82805;SDS011;72558;51.000;-3.112;2023-09-07T14:00:38;12.0;;;6.8;;
82805;SDS011;72558;51.000;-3.112;2023-09-07T14:03:11;12.5;;;6.1;;
82805;SDS011;72558;51.000;-3.112;2023-09-07T14:05:44;11.9;;;6.3;;
82805;SDS011;72558;51.000;-3.112;2023-09-07T14:08:17;13.8;;;6.5;;
82805;SDS011;72558;51.000;-3.112;2023-09-07T14:10:49;13.0;;;6.6;;
82805;SDS011;72558;51.000;-3.112;2023-09-07T14:13:22;11.1;;;6.9;;
82805;SDS011;72558;51.000;-3.112;2023-09-07T14:15:55;14.1;;;6.6;;
82805;SDS011;72558;51.000;-3.112;2023-09-07T14:18:28;10.3;;;6.3;;
82805;SDS011;72558;51.000;-3.112;2023-09-07T14:21:01;15.1;;;7.0;;
82805;SDS011;72558;51.000;-3.112;2023-09-07T14:23:33;21.2;;;7.4;;
82805;SDS011;72558;51.000;-3.112;2023-09-07T14:26:06;10.4;;;5.9;;
82805;SDS011;72558;51.000;-3.112;2023-09-07T14:28:39;12.2;;;6.9;;
82805;SDS011;72558;51.000;-3.112;2023-09-07T14:31:12;11.2;;;6.4;;
82805;SDS011;72558;51.000;-3.112;2023-09-07T14:33:44;13.5;;;7.0;;
82805;SDS011;72558;51.000;-3.112;2023-09-07T14:36:17;12.3;;;5.7;;
82805;SDS011;72558;51.000;-3.112;2023-09-07T14:38:50;13.1;;;6.4;;
82805;SDS011;72558;51.000;-3.112;2023-09-07T14:41:23;13.2;;;6.4;;
82805;SDS011;72558;51.000;-3.112;2023-09-07T14:43:55;15.0;;;6.8;;
82805;SDS011;72558;51.000;-3.112;2023-09-07T14:46:28;11.2;;;5.9;;
82805;SDS011;72558;51.000;-3.112;2023-09-07T14:49:01;12.3;;;6.3;;
82805;SDS011;72558;51.000;-3.112;2023-09-07T14:51:34;11.5;;;5.5;;
82805;SDS011;72558;51.000;-3.112;2023-09-07T14:54:06;12.8;;;6.2;;
82805;SDS011;72558;51.000;-3.112;2023-09-07T14:56:39;12.3;;;5.9;;
82805;SDS011;72558;51.000;-3.112;2023-09-07T14:59:13;11.1;;;6.1;;
82805;SDS011;72558;51.000;-3.112;2023-09-07T15:01:46;12.5;;;5.9;;
82805;SDS011;72558;51.000;-3.112;2023-09-07T15:04:18;13.8;;;7.9;;
82805;SDS011;72558;51.000;-3.112;2023-09-07T15:06:51;14.4;;;7.8;;
82805;SDS011;72558;51.000;-3.112;2023-09-07T15:09:24;14.8;;;7.4;;
82805;SDS011;72558;51.000;-3.112;2023-09-07T15:11:57;13.9;;;7.6;;
82805;SDS011;72558;51.000;-3.112;2023-09-07T15:14:30;13.1;;;6.7;;